Cody, WY (82414)

7:59 PM MST on February 21, 2017 (GMT -0700)
Valley View | | Change Station
Active Advisory: High Wind Warning

Elev 5166 ft 44.51 °N, 109.10 °W | Updated 3 minutes ago

Clear
Clear
38.9 °F
Feels Like 31 °F
N
13.0
Wind Variable Wind from SW
Gusts 15.0 mph

Today
High -- | Low -- °F
--% Chance of Precip.
Yesterday
High -- | Low -- °F
Precip. -- in
Pressure 29.82 in
Visibility 10.0 miles
Clouds Clear
Windchill 31 °F
Dew Point 28 °F
Humidity 66%
Rainfall 0.05 in
Snow Depth Not available.
7:06 AM 5:53 PM
Waning Crescent, 20% visible
METAR KCOD 220256Z AUTO 25011G16KT 10SM CLR 04/M04 A2979 RMK AO2 SLP097 T00441039 56007
Pressure 29.82 in
Visibility 10.0 miles
Clouds Clear
Windchill 31 °F
Dew Point 28 °F
Humidity 66%
Rainfall 0.05 in
Snow Depth Not available.
7:06 AM 5:53 PM
Waning Crescent, 20% visible
METAR KCOD 220256Z AUTO 25011G16KT 10SM CLR 04/M04 A2979 RMK AO2 SLP097 T00441039 56007

Get Your Daily Forecast Email!

Thanks for signing up!

Be on the lookout for a verification email in your inbox.

You'll start receiving the daily forecast at 8 AM.

×

10-Day Weather Forecast

Almanac

Astronomy

Feb. 21, 2017 Rise Set
Actual Time
Civil Twilight
Nautical Twilight
Astronomical Twilight
Moon
Length of Visible Light
Length of Day
Tomorrow will be .
, % of the Moon is Illuminated

Today's Extremes

State Highs State Lows

Community

WunderPhotos

Upload Photos

1,962,540 photos uploaded!

WunderBlog® & News

Nearby

Air Quality

  Air Quality AQ Index Pollutant
Not available.

Snow Depth

Station Depth Elevation

Earthquake Activity

City Distance Mag. Time & Date
Minimum magnitude displayed is 2.5.

Coastal Water Temperatures

Place Temperature

Stations

Nearby Weather Stations

Station Location Temp. Windchill Dew Point Humidity Wind Precip. Elev Updated Type
                   

Watches & Warnings

High Wind Warning
Issued: 7:36 PM MST Feb. 21, 2017 – National Weather Service

... High Wind Warning remains in effect until 11 am MST
Wednesday...

* timing... wind are expected to increase this evening with the
strongest wind gusts most like occurring between 2 am and 8 am
Wednesday morning but high winds could occur anytime during
the warning.

* Winds... southwest 35 to 45 mph gusting to 60 mph. Some gusts
could hit 70 to 80 mph around Clark early Wednesday.

* Impacts... mainly to transportation with blow over risk for
light and high profile vehicles, including along State Highway
120.

Precautionary/preparedness actions...

A High Wind Warning means a hazardous high wind event is expected
or occurring. Sustained wind speeds of at least 40 mph or gusts
of 58 mph or more can lead to property damage.